Southington, Connecticut
Current Conditions -  °F | °C
As of 2:53 PM on Sunday 23 Nov 2014 (Local Time) from KMMK Reporting Station
Clear Clear  
Wind Chill: 55°   Ceiling: Unl
Heat Index: 55°   Visibility: 10mi
Dew Point: 29°   Wind: 9mph
Humidity: 37%   Direction: 180°S
Pressure: 30.13"   Gusts: NA
Location:  41.6°N, 72.88°W
Report Text: KMMK 231953Z AUTO 18008KT 10SM CLR 13/M02 A3013 RMK AO2 SLP203 T01281017 TSNO
Loading
Personal Weather Stations






























Interactive Weather Map New forecast layout! Learn more

10-Day Weather Forecast

Advertisements
Track Severe Weather on mobile